Time;durP1;ratioP1;P1;durP2;ratioP2;P2;SDS_P1;SDS_P2;PMS_P1;PMS_P2;Temp;Humidity;BMP_temperature;BMP_pressure;BME280_temperature;BME280_humidity;BME280_pressure;Samples;Min_cycle;Max_cycle;Signal;HPM_P1;HPM_P2
2023/06/15 00:00:10;;;;;;;606.65;555.63;;;;;;;;;;5010486;28;20037;-67
2023/06/15 00:02:37;;;;;;;595.60;545.05;;;;;;;;;;5012120;28;20049;-66
2023/06/15 00:05:04;;;;;;;586.45;537.53;;;;;;;;;;5006317;28;20054;-67
2023/06/15 00:07:31;;;;;;;601.38;548.65;;;;;;;;;;5003635;28;20050;-71
2023/06/15 00:09:57;;;;;;;585.22;537.15;;;;;;;;;;4999299;28;20488;-67
2023/06/15 00:12:24;;;;;;;582.42;533.78;;;;;;;;;;5003412;28;20068;-67
2023/06/15 00:14:51;;;;;;;584.13;532.90;;;;;;;;;;4983974;28;20054;-68
2023/06/15 00:17:17;;;;;;;568.72;522.30;;;;;;;;;;5007740;28;20136;-67
2023/06/15 00:19:44;;;;;;;570.20;522.28;;;;;;;;;;5003835;28;20045;-67
2023/06/15 00:22:15;;;;;;;566.70;521.90;;;;;;;;;;4986213;28;20056;-67
2023/06/15 00:24:42;;;;;;;551.10;506.75;;;;;;;;;;4985463;28;20121;-70
2023/06/15 00:27:09;;;;;;;565.78;516.55;;;;;;;;;;4992202;28;20048;-69
2023/06/15 00:29:36;;;;;;;548.95;504.67;;;;;;;;;;4984533;28;20108;-67
2023/06/15 00:32:06;;;;;;;541.78;497.33;;;;;;;;;;4985552;28;20396;-68
2023/06/15 00:34:33;;;;;;;530.67;489.55;;;;;;;;;;5000822;28;20046;-68
2023/06/15 00:37:00;;;;;;;545.42;500.63;;;;;;;;;;4982595;28;20042;-68
2023/06/15 00:39:27;;;;;;;537.50;493.35;;;;;;;;;;4985514;28;20085;-68
2023/06/15 00:41:54;;;;;;;542.10;496.35;;;;;;;;;;5003175;28;20038;-68
2023/06/15 00:44:21;;;;;;;526.97;485.88;;;;;;;;;;5004979;28;20034;-68
2023/06/15 00:46:48;;;;;;;531.95;489.15;;;;;;;;;;5001331;28;20053;-68
2023/06/15 00:49:15;;;;;;;526.85;483.33;;;;;;;;;;5004776;28;20037;-70
2023/06/15 00:51:43;;;;;;;530.63;487.92;;;;;;;;;;4991797;28;20042;-68
2023/06/15 00:54:12;;;;;;;537.08;493.70;;;;;;;;;;5001688;28;20138;-67
2023/06/15 00:56:39;;;;;;;524.97;483.75;;;;;;;;;;4977998;28;20081;-69
2023/06/15 00:59:06;;;;;;;512.22;472.08;;;;;;;;;;4975814;28;20582;-67
2023/06/15 01:01:32;;;;;;;517.25;477.17;;;;;;;;;;4989729;28;20574;-68
2023/06/15 01:03:59;;;;;;;513.92;472.55;;;;;;;;;;5011784;28;20052;-67
2023/06/15 01:06:31;;;;;;;512.08;469.45;;;;;;;;;;5005845;28;20041;-70
2023/06/15 01:09:01;;;;;;;536.97;490.13;;;;;;;;;;5023531;28;20506;-67
2023/06/15 01:11:32;;;;;;;510.73;467.92;;;;;;;;;;5010038;28;20145;-67
2023/06/15 01:14:00;;;;;;;514.92;472.63;;;;;;;;;;5025328;28;20669;-67
2023/06/15 01:16:31;;;;;;;516.65;475.05;;;;;;;;;;5006069;28;20148;-68
2023/06/15 01:19:01;;;;;;;510.85;469.55;;;;;;;;;;5009629;28;20414;-67
2023/06/15 01:21:29;;;;;;;512.70;470.20;;;;;;;;;;5012151;28;20068;-69
2023/06/15 01:24:17;;;;;;;516.83;471.95;;;;;;;;;;5011050;28;20045;-70
2023/06/15 01:26:46;;;;;;;503.88;462.15;;;;;;;;;;5021999;28;20463;-66
2023/06/15 01:29:16;;;;;;;499.83;459.30;;;;;;;;;;5017494;28;20053;-66
2023/06/15 01:31:43;;;;;;;502.70;461.67;;;;;;;;;;5005577;28;20057;-67
2023/06/15 01:34:10;;;;;;;496.92;455.08;;;;;;;;;;5022159;28;20077;-67
2023/06/15 01:36:36;;;;;;;501.13;458.30;;;;;;;;;;5003071;28;20136;-67
2023/06/15 01:39:03;;;;;;;508.38;463.38;;;;;;;;;;5009352;28;20458;-67
2023/06/15 01:41:31;;;;;;;509.40;467.88;;;;;;;;;;5020686;28;20045;-67
2023/06/15 01:44:02;;;;;;;503.35;462.98;;;;;;;;;;5009688;28;20081;-68
2023/06/15 01:46:29;;;;;;;484.55;445.25;;;;;;;;;;5020474;28;20064;-68
2023/06/15 01:48:56;;;;;;;505.65;462.48;;;;;;;;;;5002822;28;20045;-70
2023/06/15 01:51:23;;;;;;;500.20;458.30;;;;;;;;;;5020956;28;20128;-68
2023/06/15 01:53:50;;;;;;;520.88;475.60;;;;;;;;;;5020794;28;20046;-68
2023/06/15 01:56:17;;;;;;;500.50;461.13;;;;;;;;;;5012795;28;20503;-67
2023/06/15 01:58:45;;;;;;;493.60;453.70;;;;;;;;;;5006167;28;20049;-69
2023/06/15 02:04:14;;;;;;;500.35;457.17;;;;;;;;;;4358311;26;20061;-64
2023/06/15 02:06:40;;;;;;;495.33;452.77;;;;;;;;;;5025445;28;20124;-64
2023/06/15 02:09:07;;;;;;;517.15;469.25;;;;;;;;;;5018369;28;20076;-64
2023/06/15 02:11:35;;;;;;;492.35;451.35;;;;;;;;;;5026516;28;20045;-63
2023/06/15 02:14:01;;;;;;;492.58;450.88;;;;;;;;;;5006997;28;20055;-63
2023/06/15 02:16:28;;;;;;;489.42;448.88;;;;;;;;;;5013813;28;20057;-64
2023/06/15 02:18:55;;;;;;;497.65;454.85;;;;;;;;;;5010068;28;20587;-63
2023/06/15 02:21:22;;;;;;;490.48;448.40;;;;;;;;;;5014378;28;20064;-63
2023/06/15 02:23:49;;;;;;;499.58;454.65;;;;;;;;;;5014086;28;20434;-64
2023/06/15 02:26:15;;;;;;;498.27;455.85;;;;;;;;;;5006348;28;20041;-63
2023/06/15 02:28:42;;;;;;;490.75;448.33;;;;;;;;;;5014375;28;20053;-63
2023/06/15 02:31:09;;;;;;;488.05;445.83;;;;;;;;;;5012858;28;20053;-64
2023/06/15 02:33:37;;;;;;;485.92;444.08;;;;;;;;;;5026581;28;20381;-63
2023/06/15 02:36:06;;;;;;;487.42;442.73;;;;;;;;;;5005586;28;20141;-64
2023/06/15 02:38:32;;;;;;;482.25;443.13;;;;;;;;;;5016187;28;20045;-64
2023/06/15 02:40:59;;;;;;;486.55;444.40;;;;;;;;;;5023644;28;20049;-63
2023/06/15 02:43:26;;;;;;;474.30;434.85;;;;;;;;;;5010713;28;20042;-63
2023/06/15 02:45:53;;;;;;;478.20;438.45;;;;;;;;;;5009653;28;20046;-64
2023/06/15 02:48:20;;;;;;;476.02;435.65;;;;;;;;;;5025153;28;20048;-63
2023/06/15 02:50:47;;;;;;;474.10;434.73;;;;;;;;;;5005263;28;20045;-68
2023/06/15 02:53:18;;;;;;;458.38;421.73;;;;;;;;;;5005205;28;20062;-64
2023/06/15 02:55:46;;;;;;;473.25;433.73;;;;;;;;;;5043006;28;20065;-63
2023/06/15 02:58:15;;;;;;;466.08;427.92;;;;;;;;;;5005001;28;20045;-63
2023/06/15 03:01:00;;;;;;;475.90;435.20;;;;;;;;;;5010894;28;20041;-63
2023/06/15 03:03:40;;;;;;;478.88;439.38;;;;;;;;;;4996048;28;20144;-64
2023/06/15 03:06:08;;;;;;;474.13;433.92;;;;;;;;;;4995441;28;20053;-64
2023/06/15 03:08:38;;;;;;;464.75;426.15;;;;;;;;;;4987736;28;20131;-63
2023/06/15 03:11:26;;;;;;;480.00;434.67;;;;;;;;;;5005019;28;20077;-63
2023/06/15 03:13:54;;;;;;;475.38;434.55;;;;;;;;;;4991142;28;20511;-63
2023/06/15 03:16:25;;;;;;;467.90;428.92;;;;;;;;;;4991226;28;20062;-63
2023/06/15 03:18:55;;;;;;;460.10;421.90;;;;;;;;;;4992464;28;20045;-64
2023/06/15 03:21:24;;;;;;;464.35;426.27;;;;;;;;;;4987276;28;20084;-65
2023/06/15 03:23:53;;;;;;;476.60;435.33;;;;;;;;;;4987807;28;20503;-63
2023/06/15 03:26:23;;;;;;;472.52;431.38;;;;;;;;;;4990797;28;20078;-64
2023/06/15 03:28:52;;;;;;;457.85;419.42;;;;;;;;;;4991988;28;20054;-64
2023/06/15 03:31:22;;;;;;;469.02;428.85;;;;;;;;;;4986278;28;20056;-64
2023/06/15 03:33:49;;;;;;;462.52;423.85;;;;;;;;;;4995068;28;20495;-65
2023/06/15 03:36:18;;;;;;;485.13;442.95;;;;;;;;;;5003814;28;20041;-64
2023/06/15 03:38:46;;;;;;;470.30;429.88;;;;;;;;;;4998182;28;20049;-65
2023/06/15 03:41:12;;;;;;;469.45;429.30;;;;;;;;;;5003653;28;20500;-65
2023/06/15 03:43:39;;;;;;;453.05;417.50;;;;;;;;;;5001291;28;20054;-64
2023/06/15 03:46:06;;;;;;;468.70;428.23;;;;;;;;;;5003210;28;20480;-64
2023/06/15 03:48:33;;;;;;;469.98;430.98;;;;;;;;;;4985401;28;20043;-63
2023/06/15 03:50:59;;;;;;;461.00;420.60;;;;;;;;;;4990613;28;20061;-64
2023/06/15 03:53:27;;;;;;;465.38;426.55;;;;;;;;;;4997667;28;20042;-64
2023/06/15 03:55:53;;;;;;;462.10;423.95;;;;;;;;;;4991019;28;20050;-63
2023/06/15 03:58:20;;;;;;;458.25;420.98;;;;;;;;;;5006304;28;20053;-64
2023/06/15 04:00:50;;;;;;;466.30;428.40;;;;;;;;;;4990805;28;20084;-64
2023/06/15 04:03:17;;;;;;;467.90;429.23;;;;;;;;;;4993042;28;20050;-64
2023/06/15 04:05:45;;;;;;;475.48;435.30;;;;;;;;;;4999284;28;20058;-65
2023/06/15 04:08:12;;;;;;;467.35;429.67;;;;;;;;;;4984847;28;20050;-64
2023/06/15 04:10:39;;;;;;;463.05;423.20;;;;;;;;;;5009194;28;20042;-65
2023/06/15 04:13:06;;;;;;;478.33;437.27;;;;;;;;;;5005256;28;20050;-63
2023/06/15 04:15:33;;;;;;;479.70;438.65;;;;;;;;;;4986091;28;20404;-64
2023/06/15 04:18:00;;;;;;;470.90;430.20;;;;;;;;;;4986990;28;20049;-64
2023/06/15 04:20:28;;;;;;;460.75;422.90;;;;;;;;;;4988788;28;20084;-64
2023/06/15 04:22:56;;;;;;;475.65;435.73;;;;;;;;;;4989288;28;20112;-64
2023/06/15 04:25:23;;;;;;;475.55;436.67;;;;;;;;;;4992936;28;20046;-64
2023/06/15 04:27:50;;;;;;;483.30;442.77;;;;;;;;;;4992927;28;20072;-64
2023/06/15 04:30:24;;;;;;;489.52;449.35;;;;;;;;;;4986367;28;20046;-67
2023/06/15 04:32:59;;;;;;;482.52;443.25;;;;;;;;;;4986774;28;20477;-64
2023/06/15 04:35:31;;;;;;;510.45;469.98;;;;;;;;;;4987769;28;20065;-64
2023/06/15 04:38:04;;;;;;;498.48;456.67;;;;;;;;;;4992349;28;20053;-64
2023/06/15 04:40:31;;;;;;;482.35;444.52;;;;;;;;;;4985401;28;20393;-65
2023/06/15 04:42:59;;;;;;;484.58;444.27;;;;;;;;;;4986409;28;20038;-66
2023/06/15 04:45:26;;;;;;;491.00;450.50;;;;;;;;;;4987191;28;20045;-64
2023/06/15 04:47:53;;;;;;;492.33;451.77;;;;;;;;;;4991160;28;20077;-64
2023/06/15 04:50:21;;;;;;;480.85;442.23;;;;;;;;;;4990699;28;20046;-63
2023/06/15 04:52:48;;;;;;;473.88;436.23;;;;;;;;;;4972887;28;20045;-66
2023/06/15 04:55:15;;;;;;;485.23;441.08;;;;;;;;;;4985917;28;20145;-64
2023/06/15 04:57:42;;;;;;;470.45;432.17;;;;;;;;;;5001042;28;20057;-65
2023/06/15 05:00:10;;;;;;;474.45;435.83;;;;;;;;;;4991611;28;20053;-64
2023/06/15 05:02:43;;;;;;;477.77;439.88;;;;;;;;;;5001186;28;20084;-64
2023/06/15 05:05:12;;;;;;;478.92;438.88;;;;;;;;;;4983135;28;20041;-64
2023/06/15 05:07:39;;;;;;;479.95;439.60;;;;;;;;;;4992385;28;20050;-65
2023/06/15 05:10:07;;;;;;;468.88;430.02;;;;;;;;;;4992137;28;20042;-64
2023/06/15 05:12:35;;;;;;;472.83;434.95;;;;;;;;;;4970707;28;20486;-64
2023/06/15 05:15:03;;;;;;;506.13;455.33;;;;;;;;;;4992410;28;20053;-65
2023/06/15 05:17:30;;;;;;;461.10;416.13;;;;;;;;;;4984462;28;20089;-64
2023/06/15 05:19:57;;;;;;;442.35;403.75;;;;;;;;;;4976054;28;20046;-65
2023/06/15 05:22:24;;;;;;;459.48;420.40;;;;;;;;;;4991460;28;20094;-64
2023/06/15 05:24:51;;;;;;;454.40;414.27;;;;;;;;;;5001976;28;20418;-65
2023/06/15 05:27:18;;;;;;;448.65;407.05;;;;;;;;;;4992482;28;20097;-67
2023/06/15 05:29:46;;;;;;;466.98;425.25;;;;;;;;;;5000665;28;20050;-66
2023/06/15 05:32:13;;;;;;;481.30;439.48;;;;;;;;;;5004051;28;20050;-65
2023/06/15 05:34:40;;;;;;;485.45;448.52;;;;;;;;;;4987700;28;20065;-65
2023/06/15 05:37:07;;;;;;;504.55;465.88;;;;;;;;;;4993669;28;20046;-65
2023/06/15 05:39:38;;;;;;;525.25;482.90;;;;;;;;;;4984977;28;20046;-66
2023/06/15 05:42:05;;;;;;;513.20;470.73;;;;;;;;;;5005846;28;20050;-65
2023/06/15 05:44:34;;;;;;;519.45;480.15;;;;;;;;;;4997319;28;20050;-64
2023/06/15 05:47:00;;;;;;;516.63;478.38;;;;;;;;;;4992263;28;20522;-67
2023/06/15 05:49:27;;;;;;;532.08;491.73;;;;;;;;;;4992318;28;20049;-66
2023/06/15 05:51:54;;;;;;;513.05;474.55;;;;;;;;;;4985206;28;20047;-66
2023/06/15 05:54:25;;;;;;;542.22;500.95;;;;;;;;;;4995041;28;20055;-66
2023/06/15 05:56:52;;;;;;;572.00;527.47;;;;;;;;;;4988258;28;20487;-68
2023/06/15 05:59:19;;;;;;;662.53;609.67;;;;;;;;;;4994930;28;20456;-66
2023/06/15 06:01:59;;;;;;;965.25;883.22;;;;;;;;;;4992453;28;20051;-67
2023/06/15 06:04:26;;;;;;;873.35;804.03;;;;;;;;;;4994314;28;20081;-66
2023/06/15 06:06:53;;;;;;;870.97;801.70;;;;;;;;;;4986585;28;20058;-66
2023/06/15 06:09:20;;;;;;;823.40;756.00;;;;;;;;;;5006131;28;20045;-68
2023/06/15 06:11:47;;;;;;;814.33;748.63;;;;;;;;;;5002004;28;20050;-66
2023/06/15 06:14:16;;;;;;;816.33;750.40;;;;;;;;;;4988370;28;20133;-66
2023/06/15 06:16:43;;;;;;;823.03;752.60;;;;;;;;;;5008862;28;20046;-68
2023/06/15 06:19:09;;;;;;;804.63;738.22;;;;;;;;;;4994687;28;20046;-66
2023/06/15 06:21:36;;;;;;;794.88;730.20;;;;;;;;;;4995589;28;20038;-66
2023/06/15 06:24:03;;;;;;;825.20;755.80;;;;;;;;;;4989890;28;20137;-68
2023/06/15 06:26:33;;;;;;;863.60;792.55;;;;;;;;;;4995401;28;20050;-64
2023/06/15 06:28:59;;;;;;;908.67;835.03;;;;;;;;;;5006331;28;20480;-67
2023/06/15 06:31:26;;;;;;;940.38;864.30;;;;;;;;;;4985418;28;20045;-66
2023/06/15 06:33:52;;;;;;;1001.08;917.78;;;;;;;;;;5010724;28;20037;-67
2023/06/15 06:36:19;;;;;;;901.10;827.97;;;;;;;;;;5003640;28;20062;-66
2023/06/15 06:38:47;;;;;;;829.15;761.65;;;;;;;;;;4986407;28;20049;-65
2023/06/15 06:41:27;;;;;;;828.47;759.47;;;;;;;;;;5004564;28;20424;-66
2023/06/15 06:43:54;;;;;;;837.50;768.92;;;;;;;;;;4991036;28;20046;-66
2023/06/15 06:46:22;;;;;;;835.05;767.28;;;;;;;;;;4989269;28;20046;-64
2023/06/15 06:48:49;;;;;;;824.83;757.05;;;;;;;;;;5006167;28;20052;-66
2023/06/15 06:51:17;;;;;;;844.75;774.33;;;;;;;;;;5007695;28;20386;-66
2023/06/15 06:53:44;;;;;;;794.03;729.22;;;;;;;;;;4987264;28;20053;-66
2023/06/15 06:56:11;;;;;;;819.45;754.55;;;;;;;;;;5001736;28;20472;-68
2023/06/15 06:58:37;;;;;;;794.85;731.20;;;;;;;;;;4995440;28;20045;-67
2023/06/15 07:01:05;;;;;;;795.80;733.03;;;;;;;;;;5008705;28;20049;-67
2023/06/15 07:03:31;;;;;;;786.15;724.10;;;;;;;;;;5018268;28;20050;-69
2023/06/15 07:05:59;;;;;;;766.55;703.53;;;;;;;;;;5011741;28;20054;-68
2023/06/15 07:08:26;;;;;;;759.08;700.00;;;;;;;;;;5024551;28;20565;-67
2023/06/15 07:10:52;;;;;;;751.60;692.25;;;;;;;;;;5022297;28;20051;-68
2023/06/15 07:13:19;;;;;;;756.78;696.55;;;;;;;;;;5011441;28;20108;-70
2023/06/15 07:15:47;;;;;;;754.10;695.03;;;;;;;;;;5008249;28;20100;-67
2023/06/15 07:18:14;;;;;;;755.13;696.20;;;;;;;;;;5024747;28;23563;-68
2023/06/15 07:20:41;;;;;;;741.05;683.03;;;;;;;;;;5011010;28;20116;-69
2023/06/15 07:23:08;;;;;;;753.90;695.80;;;;;;;;;;5022896;28;20065;-68
2023/06/15 07:25:35;;;;;;;810.22;745.50;;;;;;;;;;5026297;28;20137;-68
2023/06/15 07:28:01;;;;;;;812.03;748.47;;;;;;;;;;5023118;28;20034;-68
2023/06/15 07:30:29;;;;;;;797.15;734.95;;;;;;;;;;5014232;28;20077;-67
2023/06/15 07:32:56;;;;;;;818.78;750.10;;;;;;;;;;5006327;28;20100;-68
2023/06/15 07:35:23;;;;;;;823.28;758.67;;;;;;;;;;5024690;28;20057;-67
2023/06/15 07:37:50;;;;;;;828.95;763.92;;;;;;;;;;5023248;28;20400;-67
2023/06/15 07:40:17;;;;;;;826.95;761.55;;;;;;;;;;5021616;28;20048;-67
2023/06/15 07:42:44;;;;;;;805.25;740.78;;;;;;;;;;5027514;28;20068;-68
2023/06/15 07:45:11;;;;;;;792.25;728.70;;;;;;;;;;5023766;28;20425;-69
2023/06/15 07:47:40;;;;;;;773.22;712.63;;;;;;;;;;5009668;28;20049;-69
2023/06/15 07:50:07;;;;;;;795.22;729.05;;;;;;;;;;5006509;28;20045;-68
2023/06/15 07:52:34;;;;;;;777.53;716.35;;;;;;;;;;4988190;28;20081;-67
2023/06/15 07:55:01;;;;;;;794.20;730.55;;;;;;;;;;4990485;28;20045;-67
2023/06/15 07:57:27;;;;;;;801.08;736.17;;;;;;;;;;5026143;28;20087;-68
2023/06/15 07:59:54;;;;;;;806.00;741.80;;;;;;;;;;5021478;28;20076;-70
2023/06/15 08:02:21;;;;;;;809.03;745.30;;;;;;;;;;5007588;28;20092;-68
2023/06/15 08:04:48;;;;;;;818.65;754.17;;;;;;;;;;5014130;28;20065;-67
2023/06/15 08:07:15;;;;;;;810.90;747.25;;;;;;;;;;5026658;28;20180;-67
2023/06/15 08:09:41;;;;;;;832.50;765.45;;;;;;;;;;5023837;28;20427;-69
2023/06/15 08:12:09;;;;;;;847.83;779.38;;;;;;;;;;5005772;28;20081;-68
2023/06/15 08:14:36;;;;;;;813.38;750.05;;;;;;;;;;5021816;28;20411;-69
2023/06/15 08:17:03;;;;;;;828.33;763.33;;;;;;;;;;5024532;28;20497;-67
2023/06/15 08:19:30;;;;;;;826.30;762.00;;;;;;;;;;5023079;28;20096;-68
2023/06/15 08:21:56;;;;;;;810.97;747.80;;;;;;;;;;5026453;28;20406;-68
2023/06/15 08:24:28;;;;;;;805.63;741.08;;;;;;;;;;5023584;28;20036;-68
2023/06/15 08:27:00;;;;;;;807.58;742.25;;;;;;;;;;5008017;28;20045;-71
2023/06/15 08:29:27;;;;;;;800.88;738.28;;;;;;;;;;5012107;28;20104;-67
2023/06/15 08:31:54;;;;;;;782.65;721.40;;;;;;;;;;5008815;28;20054;-70
2023/06/15 08:34:22;;;;;;;762.83;703.05;;;;;;;;;;5024508;28;20045;-67
2023/06/15 08:36:49;;;;;;;784.97;721.40;;;;;;;;;;5009200;28;20045;-68
2023/06/15 08:39:16;;;;;;;784.97;722.45;;;;;;;;;;5024163;28;20048;-68
2023/06/15 08:41:44;;;;;;;780.42;719.20;;;;;;;;;;5009748;28;20084;-67
2023/06/15 08:44:12;;;;;;;776.70;716.53;;;;;;;;;;5012257;28;20045;-62
2023/06/15 08:46:42;;;;;;;758.00;698.85;;;;;;;;;;5026756;28;20092;-68
2023/06/15 08:49:09;;;;;;;778.17;716.42;;;;;;;;;;5020311;28;20046;-65
2023/06/15 08:51:36;;;;;;;809.30;743.78;;;;;;;;;;5027339;28;20052;-66
2023/06/15 08:54:08;;;;;;;755.03;693.47;;;;;;;;;;5012501;28;20463;-67
2023/06/15 08:56:38;;;;;;;761.05;700.88;;;;;;;;;;5019687;28;20049;-66
2023/06/15 08:59:06;;;;;;;765.03;705.28;;;;;;;;;;5013272;28;20518;-66
2023/06/15 09:01:33;;;;;;;758.50;698.70;;;;;;;;;;5019820;28;20042;-65
2023/06/15 09:04:00;;;;;;;772.65;708.63;;;;;;;;;;4995534;28;20050;-66
2023/06/15 09:06:27;;;;;;;755.05;694.05;;;;;;;;;;4992869;28;20108;-68
2023/06/15 09:08:54;;;;;;;773.70;710.53;;;;;;;;;;4992245;28;20061;-66
2023/06/15 09:11:21;;;;;;;776.17;714.08;;;;;;;;;;5002604;28;20050;-66
2023/06/15 09:13:53;;;;;;;774.25;713.03;;;;;;;;;;5003664;28;20122;-67
2023/06/15 09:16:20;;;;;;;540.80;498.92;;;;;;;;;;5005264;28;20040;-67
2023/06/15 09:18:49;;;;;;;346.35;320.45;;;;;;;;;;4991158;28;20049;-64
2023/06/15 09:21:16;;;;;;;333.77;308.80;;;;;;;;;;4979394;28;20053;-66
2023/06/15 09:23:44;;;;;;;327.20;302.52;;;;;;;;;;5005247;28;20057;-65
2023/06/15 09:26:27;;;;;;;343.15;317.83;;;;;;;;;;4993292;28;20038;-64
2023/06/15 09:28:54;;;;;;;333.77;306.83;;;;;;;;;;4987778;28;20049;-62
2023/06/15 09:31:31;;;;;;;335.08;309.17;;;;;;;;;;4994996;28;20126;-62
2023/06/15 09:34:10;;;;;;;319.25;295.67;;;;;;;;;;4997515;28;20133;-62
2023/06/15 09:36:41;;;;;;;309.73;286.17;;;;;;;;;;4993405;28;20073;-62
2023/06/15 09:39:09;;;;;;;305.95;280.95;;;;;;;;;;5007445;28;20050;-63
2023/06/15 09:41:49;;;;;;;293.80;270.70;;;;;;;;;;4993664;28;20052;-61
2023/06/15 09:44:17;;;;;;;281.17;260.88;;;;;;;;;;5008265;28;20472;-62
2023/06/15 09:46:44;;;;;;;291.30;269.10;;;;;;;;;;4989688;28;20050;-62
2023/06/15 09:49:40;;;;;;;579.83;534.95;;;;;;;;;;5010158;28;20049;-61
2023/06/15 09:52:11;;;;;;;338.70;313.20;;;;;;;;;;4945236;29;20059;-63
2023/06/15 09:54:38;;;;;;;322.27;298.95;;;;;;;;;;4925478;29;20044;-62
2023/06/15 09:57:05;;;;;;;324.20;295.15;;;;;;;;;;4943914;29;20138;-62
2023/06/15 09:59:32;;;;;;;343.17;317.13;;;;;;;;;;4941598;29;20111;-62
2023/06/15 10:02:00;;;;;;;326.23;299.60;;;;;;;;;;4928593;29;20040;-61
2023/06/15 10:04:31;;;;;;;289.05;268.30;;;;;;;;;;4958153;28;20062;-62
2023/06/15 10:07:01;;;;;;;300.30;277.63;;;;;;;;;;4964166;28;20051;-63
2023/06/15 10:09:31;;;;;;;306.77;279.50;;;;;;;;;;4943702;28;20066;-58
2023/06/15 10:15:03;;;;;;;300.80;276.48;;;;;;;;;;3413017;26;20476;-59
2023/06/15 10:17:35;;;;;;;294.13;273.23;;;;;;;;;;5007609;28;20041;-60
2023/06/15 10:20:07;;;;;;;288.88;269.67;;;;;;;;;;5007137;28;20038;-60
2023/06/15 10:29:36;;;;;;;317.67;297.27;;;;;;;;;;5030511;23;20071;-70
2023/06/15 10:32:06;;;;;;;306.90;286.15;;;;;;;;;;5009426;28;20407;-70
2023/06/15 10:35:03;;;;;;;306.73;284.98;;;;;;;;;;5026972;28;20463;-69
2023/06/15 10:37:51;;;;;;;299.45;279.48;;;;;;;;;;5010309;28;20046;-70
2023/06/15 10:40:27;;;;;;;290.42;269.48;;;;;;;;;;5025789;28;22097;-71
2023/06/15 10:42:55;;;;;;;288.50;267.88;;;;;;;;;;5008685;28;20048;-70
2023/06/15 10:45:32;;;;;;;287.40;264.15;;;;;;;;;;5050916;28;20048;-69
2023/06/15 10:48:00;;;;;;;277.55;254.82;;;;;;;;;;5045241;28;20038;-70
2023/06/15 10:50:36;;;;;;;273.70;253.88;;;;;;;;;;5042430;28;20037;-73
2023/06/15 10:53:03;;;;;;;266.00;246.30;;;;;;;;;;5046501;28;20045;-69
2023/06/15 10:55:31;;;;;;;263.55;244.65;;;;;;;;;;5042820;28;20407;-73
2023/06/15 10:58:18;;;;;;;263.05;243.55;;;;;;;;;;5028157;28;20045;-71
2023/06/15 11:01:03;;;;;;;276.02;254.82;;;;;;;;;;5040964;28;20072;-71
2023/06/15 11:03:31;;;;;;;293.40;268.45;;;;;;;;;;5040243;28;20116;-68
2023/06/15 11:06:02;;;;;;;293.58;270.98;;;;;;;;;;5032647;28;20072;-71
2023/06/15 11:08:30;;;;;;;286.00;263.33;;;;;;;;;;5022761;28;20058;-69
2023/06/15 11:10:57;;;;;;;295.10;273.25;;;;;;;;;;5044545;28;20077;-71
2023/06/15 11:13:25;;;;;;;305.00;281.65;;;;;;;;;;5043096;28;20045;-70
2023/06/15 11:16:08;;;;;;;312.88;289.23;;;;;;;;;;5042430;28;20041;-70
2023/06/15 11:18:36;;;;;;;321.88;297.13;;;;;;;;;;5045359;28;20068;-73
2023/06/15 11:21:04;;;;;;;314.83;289.10;;;;;;;;;;5033108;28;20048;-74
2023/06/15 11:23:33;;;;;;;294.70;273.35;;;;;;;;;;5043674;28;20103;-71
2023/06/15 11:26:01;;;;;;;307.05;284.35;;;;;;;;;;5043208;28;20094;-70
2023/06/15 11:28:33;;;;;;;319.80;291.92;;;;;;;;;;5041701;28;20045;-70
2023/06/15 11:31:06;;;;;;;307.40;284.58;;;;;;;;;;5043864;28;20041;-69
2023/06/15 11:33:39;;;;;;;304.92;282.90;;;;;;;;;;5041927;28;20452;-70
2023/06/15 11:36:08;;;;;;;307.30;281.90;;;;;;;;;;5042043;28;20048;-70
2023/06/15 11:38:35;;;;;;;302.55;279.92;;;;;;;;;;5044833;28;20052;-71
2023/06/15 11:41:03;;;;;;;310.35;287.13;;;;;;;;;;5044368;28;20455;-74
2023/06/15 11:43:35;;;;;;;337.38;312.15;;;;;;;;;;5045125;28;20502;-69
2023/06/15 11:46:02;;;;;;;329.33;305.08;;;;;;;;;;5039300;28;20042;-70
2023/06/15 11:48:29;;;;;;;335.02;308.55;;;;;;;;;;5031876;28;20041;-71
2023/06/15 11:50:56;;;;;;;351.40;323.98;;;;;;;;;;5043412;28;20069;-70
2023/06/15 11:53:23;;;;;;;355.05;327.80;;;;;;;;;;5041382;28;20104;-70
2023/06/15 11:55:51;;;;;;;351.27;319.98;;;;;;;;;;5047978;28;20398;-71
2023/06/15 11:58:18;;;;;;;341.38;315.75;;;;;;;;;;5039318;28;20486;-70
2023/06/15 12:00:45;;;;;;;372.33;342.70;;;;;;;;;;5044767;28;20080;-71
2023/06/15 12:03:12;;;;;;;393.33;357.90;;;;;;;;;;5040834;28;20040;-74
2023/06/15 12:05:39;;;;;;;375.08;348.60;;;;;;;;;;5041289;28;20107;-69
2023/06/15 12:08:10;;;;;;;352.38;328.58;;;;;;;;;;5043754;28;20041;-70
2023/06/15 12:10:37;;;;;;;378.23;347.67;;;;;;;;;;5038567;28;20073;-70
2023/06/15 12:13:10;;;;;;;365.70;336.80;;;;;;;;;;5044132;28;20446;-69
2023/06/15 12:15:44;;;;;;;366.58;338.65;;;;;;;;;;5030491;28;20041;-70
2023/06/15 12:18:12;;;;;;;350.45;322.35;;;;;;;;;;5032841;28;20048;-70
2023/06/15 12:20:39;;;;;;;350.35;325.02;;;;;;;;;;5041678;28;20060;-70
2023/06/15 12:23:06;;;;;;;346.45;320.67;;;;;;;;;;5043955;28;20064;-71
2023/06/15 12:26:00;;;;;;;353.75;326.33;;;;;;;;;;5040707;28;20045;-71
2023/06/15 12:28:27;;;;;;;;;;;;;;;;;;5018224;28;20049;-69
2023/06/15 12:30:59;;;;;;;355.73;330.23;;;;;;;;;;5042238;28;20275;-70
2023/06/15 12:33:29;;;;;;;334.10;310.33;;;;;;;;;;5042092;28;20040;-70
2023/06/15 12:35:57;;;;;;;340.35;314.60;;;;;;;;;;5040709;28;20045;-69
2023/06/15 12:38:26;;;;;;;340.65;316.52;;;;;;;;;;5042032;28;20099;-69
2023/06/15 12:40:53;;;;;;;329.60;303.98;;;;;;;;;;5030257;28;20095;-69
2023/06/15 12:43:20;;;;;;;331.00;305.88;;;;;;;;;;5041096;28;20053;-69
2023/06/15 12:45:48;;;;;;;326.80;302.42;;;;;;;;;;5026532;28;20398;-70
2023/06/15 12:48:15;;;;;;;331.83;304.55;;;;;;;;;;5041777;28;20064;-70
2023/06/15 12:50:43;;;;;;;330.83;306.02;;;;;;;;;;5040974;28;20041;-70
2023/06/15 12:53:10;;;;;;;321.25;296.17;;;;;;;;;;5045447;28;20498;-69
2023/06/15 12:55:37;;;;;;;320.83;295.40;;;;;;;;;;5038896;28;20503;-70
2023/06/15 12:58:05;;;;;;;306.42;282.25;;;;;;;;;;5047333;28;20044;-70
2023/06/15 13:00:32;;;;;;;312.77;287.83;;;;;;;;;;5040943;28;20221;-71
2023/06/15 13:03:00;;;;;;;317.38;292.50;;;;;;;;;;5042643;28;20486;-72
2023/06/15 13:05:28;;;;;;;301.92;279.23;;;;;;;;;;5041658;28;20133;-69
2023/06/15 13:07:56;;;;;;;290.77;270.63;;;;;;;;;;5041424;28;20056;-69
2023/06/15 13:10:23;;;;;;;289.67;268.67;;;;;;;;;;5026672;28;20065;-69
2023/06/15 13:12:50;;;;;;;313.10;290.25;;;;;;;;;;5043871;28;20037;-68
2023/06/15 13:15:17;;;;;;;318.83;292.17;;;;;;;;;;5040458;28;20487;-69
2023/06/15 13:17:48;;;;;;;315.98;292.90;;;;;;;;;;5027965;28;20069;-69
2023/06/15 13:20:15;;;;;;;320.90;297.08;;;;;;;;;;5039069;28;20075;-68
2023/06/15 13:22:44;;;;;;;316.30;291.50;;;;;;;;;;5041743;28;20509;-72
2023/06/15 13:25:11;;;;;;;309.52;285.67;;;;;;;;;;5039349;28;20060;-68
2023/06/15 13:27:38;;;;;;;300.58;276.88;;;;;;;;;;5024861;28;20120;-69
2023/06/15 13:30:07;;;;;;;315.90;290.83;;;;;;;;;;5040254;28;20075;-72
2023/06/15 13:32:35;;;;;;;336.73;309.45;;;;;;;;;;5046595;28;20450;-69
2023/06/15 13:35:06;;;;;;;365.73;337.48;;;;;;;;;;5040213;28;20037;-69
2023/06/15 13:37:34;;;;;;;380.13;350.77;;;;;;;;;;5041640;28;20040;-69
2023/06/15 13:40:06;;;;;;;404.20;373.92;;;;;;;;;;5040081;28;20040;-70
2023/06/15 13:42:35;;;;;;;393.52;363.58;;;;;;;;;;5043943;28;20064;-69
2023/06/15 13:45:08;;;;;;;380.15;352.30;;;;;;;;;;5041435;28;20042;-69
2023/06/15 13:47:36;;;;;;;366.30;338.17;;;;;;;;;;5037774;28;20077;-68
2023/06/15 13:50:04;;;;;;;353.27;327.13;;;;;;;;;;5044521;28;20494;-68
2023/06/15 13:52:31;;;;;;;360.17;335.42;;;;;;;;;;5037560;28;20041;-70
2023/06/15 13:54:59;;;;;;;383.30;357.27;;;;;;;;;;5047550;28;20454;-69
2023/06/15 13:57:28;;;;;;;421.40;390.65;;;;;;;;;;5046318;28;20107;-71
2023/06/15 13:59:55;;;;;;;496.20;459.50;;;;;;;;;;5045410;28;20055;-68
2023/06/15 14:02:23;;;;;;;715.35;659.50;;;;;;;;;;5046960;28;20124;-68
2023/06/15 14:04:52;;;;;;;619.75;572.25;;;;;;;;;;5043264;28;20049;-68
2023/06/15 14:07:19;;;;;;;657.15;605.45;;;;;;;;;;5046985;28;20053;-68
2023/06/15 14:09:46;;;;;;;537.83;495.77;;;;;;;;;;5044412;28;20132;-70
2023/06/15 14:12:13;;;;;;;510.25;467.83;;;;;;;;;;5043004;28;20065;-69
2023/06/15 14:14:41;;;;;;;446.83;415.15;;;;;;;;;;5045335;28;20049;-68